Time;durP1;ratioP1;P1;durP2;ratioP2;P2;SDS_P1;SDS_P2;PMS_P1;PMS_P2;Temp;Humidity;BMP_temperature;BMP_pressure;BME280_temperature;BME280_humidity;BME280_pressure;Samples;Min_cycle;Max_cycle;Signal;HPM_P1;HPM_P2
2024/01/20 00:00:02;;;;;;;28.40;16.17;;;;;;;-3.15;83.79;96442.63;5013023;28;20736;-77
2024/01/20 00:02:28;;;;;;;29.07;17.37;;;;;;;-3.17;84.09;96445.19;5013660;28;20196;-76
2024/01/20 00:04:53;;;;;;;28.03;16.73;;;;;;;-3.07;83.90;96433.06;4995058;28;20207;-76
2024/01/20 00:07:19;;;;;;;32.07;16.50;;;;;;;-3.03;83.94;96433.81;5012091;28;20645;-76
2024/01/20 00:09:44;;;;;;;28.90;17.30;;;;;;;-3.04;83.29;96424.53;5027867;28;20272;-76
2024/01/20 00:12:10;;;;;;;31.07;17.90;;;;;;;-3.05;83.56;96428.78;5011896;28;20230;-76
2024/01/20 00:14:35;;;;;;;31.60;18.17;;;;;;;-3.10;84.26;96427.22;5028423;28;20183;-76
2024/01/20 00:17:00;;;;;;;32.17;16.97;;;;;;;-3.19;84.15;96421.53;5011745;28;20195;-76
2024/01/20 00:19:26;;;;;;;27.43;16.97;;;;;;;-3.02;83.68;96407.50;5012537;28;20250;-76
2024/01/20 00:21:51;;;;;;;32.00;17.30;;;;;;;-3.14;84.25;96418.88;5012943;28;20560;-76
2024/01/20 00:24:16;;;;;;;25.70;15.83;;;;;;;-3.05;84.25;96427.94;5027753;28;20256;-76
2024/01/20 00:26:42;;;;;;;34.40;18.80;;;;;;;-3.16;84.81;96423.16;5028094;28;20276;-76
2024/01/20 00:29:07;;;;;;;30.07;16.27;;;;;;;-3.09;84.36;96431.44;5027819;28;20242;-76
2024/01/20 00:31:32;;;;;;;29.87;17.17;;;;;;;-3.57;86.56;96434.47;5028137;28;20650;-76
2024/01/20 00:33:58;;;;;;;33.60;17.70;;;;;;;-3.30;85.91;96436.25;5010849;28;20217;-76
2024/01/20 00:36:23;;;;;;;30.80;17.60;;;;;;;-3.31;85.68;96434.59;5027994;28;20707;-76
2024/01/20 00:38:48;;;;;;;33.47;19.07;;;;;;;-3.22;84.92;96443.66;5011495;28;20199;-77
2024/01/20 00:41:14;;;;;;;32.43;19.00;;;;;;;-3.58;86.31;96437.88;5012206;28;20229;-76
2024/01/20 00:43:39;;;;;;;32.97;19.40;;;;;;;-3.22;85.14;96452.09;5012729;28;20193;-76
2024/01/20 00:46:04;;;;;;;34.53;18.93;;;;;;;-3.23;85.15;96454.69;5012612;28;20199;-76
2024/01/20 00:48:30;;;;;;;34.33;18.70;;;;;;;-3.27;84.86;96448.88;5027683;28;20278;-76
2024/01/20 00:50:55;;;;;;;33.97;18.23;;;;;;;-3.25;84.94;96459.81;5011805;28;20821;-76
2024/01/20 00:53:20;;;;;;;33.50;19.00;;;;;;;-3.25;84.28;96449.66;5010923;28;20195;-76
2024/01/20 00:55:46;;;;;;;33.70;17.63;;;;;;;-3.31;84.77;96443.91;5010944;28;20233;-76
2024/01/20 00:58:11;;;;;;;32.57;18.57;;;;;;;-3.39;85.32;96441.56;5011005;28;20202;-76
2024/01/20 01:00:37;;;;;;;31.23;17.60;;;;;;;-3.35;85.06;96439.81;5027385;28;20249;-76
2024/01/20 01:03:03;;;;;;;33.60;18.37;;;;;;;-3.50;85.77;96435.97;5011009;28;20613;-76
2024/01/20 01:05:29;;;;;;;30.20;16.83;;;;;;;-3.75;86.58;96443.38;5010913;28;20199;-76
2024/01/20 01:07:56;;;;;;;30.30;17.57;;;;;;;-3.59;85.61;96449.72;5011045;28;20273;-76
2024/01/20 01:10:21;;;;;;;33.10;18.17;;;;;;;-3.60;85.52;96458.22;5010424;28;20211;-76
2024/01/20 01:12:46;;;;;;;29.00;17.27;;;;;;;-3.72;86.01;96456.81;5012147;28;20567;-76
2024/01/20 01:15:12;;;;;;;31.83;17.83;;;;;;;-3.73;85.32;96441.63;5010873;28;20179;-76
2024/01/20 01:17:37;;;;;;;31.33;17.37;;;;;;;-3.64;85.09;96453.25;5027067;28;20241;-76
2024/01/20 01:20:03;;;;;;;33.27;17.63;;;;;;;-3.79;84.87;96451.97;5010335;28;20207;-76
2024/01/20 01:22:28;;;;;;;25.90;16.23;;;;;;;-3.79;85.52;96449.44;5010825;28;20195;-76
2024/01/20 01:24:54;;;;;;;32.67;16.67;;;;;;;-3.81;85.68;96454.50;5010288;28;20199;-76
2024/01/20 01:27:19;;;;;;;32.93;17.37;;;;;;;-3.96;85.55;96454.91;5010832;28;20257;-76
2024/01/20 01:29:44;;;;;;;29.57;16.90;;;;;;;-3.95;85.26;96453.22;5011239;28;20302;-76
2024/01/20 01:32:10;;;;;;;30.80;17.03;;;;;;;-4.03;85.22;96446.63;5010483;28;20225;-76
2024/01/20 01:34:36;;;;;;;26.87;16.07;;;;;;;-4.13;85.95;96455.34;5026134;28;20190;-76
2024/01/20 01:37:01;;;;;;;30.70;17.13;;;;;;;-4.27;86.88;96455.66;5010665;28;20179;-76
2024/01/20 01:39:26;;;;;;;30.03;16.87;;;;;;;-4.17;86.59;96451.19;5026276;28;20222;-76
2024/01/20 01:41:52;;;;;;;26.53;16.40;;;;;;;-4.25;87.09;96462.38;5010220;28;20226;-76
2024/01/20 01:44:17;;;;;;;29.27;15.20;;;;;;;-4.19;86.12;96470.69;5010238;28;20589;-76
2024/01/20 01:46:42;;;;;;;34.73;17.47;;;;;;;-4.22;85.76;96468.22;5010161;28;20199;-77
2024/01/20 01:49:08;;;;;;;27.90;16.10;;;;;;;-4.29;86.22;96475.16;5026270;28;20207;-76
2024/01/20 01:51:33;;;;;;;26.73;15.87;;;;;;;-4.29;86.47;96470.06;5010224;28;20556;-76
2024/01/20 01:54:01;;;;;;;30.87;17.30;;;;;;;-4.28;86.00;96464.13;5010285;28;20649;-77
2024/01/20 01:56:27;;;;;;;26.00;15.60;;;;;;;-4.27;86.16;96465.78;5026525;28;20187;-76
2024/01/20 01:58:53;;;;;;;29.50;16.37;;;;;;;-4.37;86.03;96471.94;5026775;28;20202;-76
2024/01/20 02:01:19;;;;;;;29.50;15.80;;;;;;;-4.24;85.81;96459.84;5025917;28;20266;-76
2024/01/20 02:03:44;;;;;;;29.50;16.13;;;;;;;-4.42;85.24;96460.22;4993489;28;20631;-76
2024/01/20 02:06:10;;;;;;;31.63;15.87;;;;;;;-4.50;86.32;96457.91;4993872;28;20903;-76
2024/01/20 02:08:39;;;;;;;28.43;16.87;;;;;;;-4.44;86.82;96456.91;5026464;28;20204;-76
2024/01/20 02:11:04;;;;;;;29.97;17.57;;;;;;;-4.48;86.07;96462.94;5009309;28;20293;-76
2024/01/20 02:13:30;;;;;;;31.80;17.17;;;;;;;-4.42;86.51;96463.59;5010530;28;20652;-76
2024/01/20 02:15:56;;;;;;;31.13;16.97;;;;;;;-4.54;87.24;96455.44;5009778;28;20215;-76
2024/01/20 02:18:22;;;;;;;33.80;16.97;;;;;;;-4.60;87.51;96464.84;5026339;28;20882;-76
2024/01/20 02:20:47;;;;;;;27.27;16.03;;;;;;;-4.48;86.72;96463.75;5025527;28;20199;-76
2024/01/20 02:23:13;;;;;;;31.07;17.17;;;;;;;-4.52;86.54;96474.81;5010994;28;20209;-76
2024/01/20 02:25:38;;;;;;;34.00;17.73;;;;;;;-4.44;86.19;96474.66;5024845;28;20715;-76
2024/01/20 02:28:04;;;;;;;32.23;18.23;;;;;;;-4.59;86.35;96486.00;5009732;28;20613;-76
2024/01/20 02:30:29;;;;;;;31.30;16.47;;;;;;;-4.52;86.71;96484.13;5010687;28;20233;-76
2024/01/20 02:32:54;;;;;;;31.67;17.33;;;;;;;-4.59;86.82;96475.84;5010808;28;20206;-76
2024/01/20 02:35:20;;;;;;;26.83;16.10;;;;;;;-4.65;86.32;96483.56;5009373;28;20587;-76
2024/01/20 02:37:45;;;;;;;30.60;17.67;;;;;;;-4.55;86.17;96479.97;5009256;28;20218;-76
2024/01/20 02:40:11;;;;;;;27.13;16.67;;;;;;;-4.57;86.85;96492.69;5010189;28;20214;-76
2024/01/20 02:42:36;;;;;;;33.70;17.57;;;;;;;-4.69;87.37;96503.06;5025967;28;20187;-76
2024/01/20 02:45:02;;;;;;;32.83;17.00;;;;;;;-4.71;87.33;96496.38;5009271;28;20206;-76
2024/01/20 02:47:27;;;;;;;28.03;16.70;;;;;;;-4.69;87.44;96498.00;5016147;28;20222;-76
2024/01/20 02:49:52;;;;;;;32.13;17.17;;;;;;;-4.80;87.86;96502.47;5015264;28;20302;-76
2024/01/20 02:52:18;;;;;;;33.50;17.63;;;;;;;-4.73;87.54;96495.56;5017141;28;20661;-76
2024/01/20 02:54:43;;;;;;;32.70;17.63;;;;;;;-4.54;87.10;96489.25;5015581;28;20211;-76
2024/01/20 02:57:08;;;;;;;35.97;19.07;;;;;;;-4.53;86.73;96490.06;5017183;28;20261;-76
2024/01/20 02:59:34;;;;;;;29.67;15.77;;;;;;;-4.55;86.64;96492.66;5032065;28;20268;-76
2024/01/20 03:02:02;;;;;;;29.80;17.53;;;;;;;-4.51;86.28;96493.41;4999081;28;20202;-76
2024/01/20 03:04:27;;;;;;;32.60;16.83;;;;;;;-4.44;85.17;96495.78;5015715;28;20221;-76
2024/01/20 03:06:52;;;;;;;28.40;16.63;;;;;;;-4.59;86.34;96491.88;5032231;28;20577;-76
2024/01/20 03:09:18;;;;;;;30.93;16.90;;;;;;;-4.67;85.67;96493.75;5031783;28;20317;-76
2024/01/20 03:11:43;;;;;;;24.57;15.40;;;;;;;-4.77;86.37;96491.41;5015938;28;20195;-76
2024/01/20 03:14:09;;;;;;;26.17;16.23;;;;;;;-4.68;85.55;96493.75;5017037;28;20179;-76
2024/01/20 03:16:35;;;;;;;27.47;16.13;;;;;;;-4.63;85.75;96499.56;5032377;28;20191;-76
2024/01/20 03:19:00;;;;;;;29.10;15.60;;;;;;;-4.72;85.57;96495.53;5032180;28;20573;-76
2024/01/20 03:21:25;;;;;;;30.73;16.10;;;;;;;-4.79;86.60;96503.28;5031694;28;20270;-76
2024/01/20 03:23:53;;;;;;;30.83;16.13;;;;;;;-4.75;86.35;96494.78;5016902;28;20660;-76
2024/01/20 03:26:19;;;;;;;29.90;16.27;;;;;;;-4.78;85.68;96500.72;5015061;28;20561;-76
2024/01/20 03:28:44;;;;;;;26.87;14.70;;;;;;;-4.99;87.10;96502.00;5032139;28;20218;-76
2024/01/20 03:31:10;;;;;;;28.00;15.73;;;;;;;-4.85;86.72;96505.09;4998818;28;20193;-75
2024/01/20 03:33:35;;;;;;;28.20;15.67;;;;;;;-5.01;87.42;96508.81;5015461;28;20270;-76
2024/01/20 03:36:00;;;;;;;28.53;16.20;;;;;;;-4.93;87.52;96512.03;5015591;28;20214;-76
2024/01/20 03:38:26;;;;;;;27.20;15.40;;;;;;;-4.94;86.52;96517.13;5016958;28;20257;-76
2024/01/20 03:40:51;;;;;;;27.27;15.67;;;;;;;-4.85;86.78;96515.25;5014815;28;20266;-76
2024/01/20 03:43:16;;;;;;;25.17;14.67;;;;;;;-4.90;87.06;96522.09;5016831;28;20194;-76
2024/01/20 03:45:43;;;;;;;28.90;16.10;;;;;;;-4.93;86.39;96517.09;5016561;28;20257;-76
2024/01/20 03:48:08;;;;;;;28.40;16.00;;;;;;;-4.77;85.84;96522.69;5016600;28;20672;-76
2024/01/20 03:50:34;;;;;;;25.57;14.67;;;;;;;-4.82;86.49;96526.19;5014738;28;20222;-76
2024/01/20 03:52:59;;;;;;;31.03;17.00;;;;;;;-4.64;86.01;96528.31;5013893;28;20191;-76
2024/01/20 03:55:25;;;;;;;31.37;16.73;;;;;;;-4.63;86.04;96530.00;5031858;28;20197;-76
2024/01/20 03:57:50;;;;;;;26.80;15.73;;;;;;;-5.02;87.59;96531.66;5029988;28;20287;-76
2024/01/20 04:00:15;;;;;;;29.13;15.23;;;;;;;-4.72;86.61;96532.72;5028280;28;20641;-76
2024/01/20 04:02:41;;;;;;;29.23;15.57;;;;;;;-4.70;86.67;96531.81;5028570;28;20198;-76
2024/01/20 04:05:06;;;;;;;30.60;17.30;;;;;;;-4.91;87.31;96528.03;5013223;28;20253;-76
2024/01/20 04:07:32;;;;;;;29.57;15.60;;;;;;;-4.78;86.74;96533.66;5012150;28;20278;-76
2024/01/20 04:09:57;;;;;;;27.50;16.10;;;;;;;-4.93;86.69;96526.41;5011386;28;20309;-76
2024/01/20 04:12:23;;;;;;;24.53;15.00;;;;;;;-4.78;86.14;96530.31;5028610;28;20538;-76
2024/01/20 04:14:49;;;;;;;27.20;15.87;;;;;;;-4.78;85.96;96526.06;5011842;28;20652;-76
2024/01/20 04:17:14;;;;;;;24.37;14.10;;;;;;;-4.92;86.22;96528.06;5011866;28;20222;-76
2024/01/20 04:19:40;;;;;;;28.17;15.50;;;;;;;-4.86;86.17;96522.84;5011071;28;20322;-76
2024/01/20 04:22:05;;;;;;;27.47;14.77;;;;;;;-5.03;86.37;96524.91;5013132;28;20221;-76
2024/01/20 04:24:30;;;;;;;28.83;15.80;;;;;;;-4.90;85.46;96527.16;5011586;28;20575;-76
2024/01/20 04:26:56;;;;;;;32.50;15.73;;;;;;;-4.93;84.95;96531.47;5012001;28;20267;-76
2024/01/20 04:29:21;;;;;;;25.97;14.40;;;;;;;-5.13;85.54;96527.59;5011111;28;20600;-76
2024/01/20 04:31:46;;;;;;;22.00;13.53;;;;;;;-5.12;85.94;96528.47;5012725;28;20195;-76
2024/01/20 04:34:12;;;;;;;26.57;15.73;;;;;;;-5.13;85.92;96536.91;5012848;28;20190;-76
2024/01/20 04:36:37;;;;;;;27.97;15.63;;;;;;;-5.02;85.86;96540.09;5012905;28;20337;-76
2024/01/20 04:39:03;;;;;;;24.70;14.83;;;;;;;-5.04;84.73;96540.94;5011226;28;20707;-76
2024/01/20 04:41:28;;;;;;;26.20;15.03;;;;;;;-5.07;85.14;96543.56;5011335;28;20205;-76
2024/01/20 04:43:53;;;;;;;26.87;15.23;;;;;;;-5.13;85.71;96541.97;5011270;28;20183;-76
2024/01/20 04:46:19;;;;;;;24.27;14.00;;;;;;;-5.12;85.92;96543.66;4994828;28;20197;-76
2024/01/20 04:48:44;;;;;;;28.77;14.40;;;;;;;-5.13;86.35;96547.03;5012492;28;20236;-76
2024/01/20 04:51:10;;;;;;;24.33;13.53;;;;;;;-5.15;86.18;96547.06;5010700;28;20187;-76
2024/01/20 04:53:35;;;;;;;23.57;14.63;;;;;;;-5.20;85.48;96543.78;5027760;28;20190;-76
2024/01/20 04:56:04;;;;;;;27.47;14.83;;;;;;;-5.09;85.61;96546.13;5011324;28;20191;-76
2024/01/20 04:58:30;;;;;;;25.60;14.80;;;;;;;-5.30;85.79;96546.50;5011307;28;20187;-76
2024/01/20 05:00:56;;;;;;;25.57;15.30;;;;;;;-5.33;86.09;96549.94;5010420;28;20222;-76
2024/01/20 05:03:21;;;;;;;27.53;14.53;;;;;;;-5.26;85.97;96545.59;5027655;28;20191;-76
2024/01/20 05:05:46;;;;;;;28.73;15.20;;;;;;;-5.34;86.19;96544.91;5010875;28;20698;-76
2024/01/20 05:08:12;;;;;;;27.40;14.83;;;;;;;-5.29;85.70;96543.13;5011169;28;20186;-76
2024/01/20 05:10:37;;;;;;;25.43;14.77;;;;;;;-5.35;86.02;96548.28;5010534;28;20250;-76
2024/01/20 05:13:03;;;;;;;24.87;14.30;;;;;;;-5.31;85.67;96549.91;5011090;28;20194;-76
2024/01/20 05:15:30;;;;;;;27.07;14.83;;;;;;;-5.35;86.14;96546.59;5025403;28;20190;-76
2024/01/20 05:17:55;;;;;;;26.27;14.37;;;;;;;-5.30;85.59;96546.50;5011943;28;20206;-76
2024/01/20 05:20:20;;;;;;;27.67;15.03;;;;;;;-5.42;85.50;96547.56;5026695;28;20207;-76
2024/01/20 05:22:46;;;;;;;28.03;15.33;;;;;;;-5.49;86.47;96544.28;5027155;28;20661;-76
2024/01/20 05:25:11;;;;;;;26.60;14.27;;;;;;;-5.51;86.13;96543.50;5011756;28;20237;-76
2024/01/20 05:27:36;;;;;;;28.00;15.07;;;;;;;-5.56;86.53;96559.66;5010999;28;20225;-76
2024/01/20 05:30:02;;;;;;;30.93;15.07;;;;;;;-5.66;88.26;96547.97;5006220;28;20204;-76
2024/01/20 05:32:27;;;;;;;27.27;14.83;;;;;;;-5.55;87.51;96557.09;5011847;28;20244;-76
2024/01/20 05:34:52;;;;;;;26.47;14.33;;;;;;;-5.50;87.49;96550.22;5010109;28;20994;-76
2024/01/20 05:37:18;;;;;;;28.00;15.67;;;;;;;-5.50;86.87;96550.22;5011738;28;20195;-76
2024/01/20 05:39:43;;;;;;;30.10;15.70;;;;;;;-5.43;85.76;96550.97;5010996;28;20223;-76
2024/01/20 05:42:08;;;;;;;30.17;15.33;;;;;;;-5.43;85.39;96556.84;5011415;28;20191;-76
2024/01/20 05:44:34;;;;;;;27.77;15.03;;;;;;;-5.33;85.83;96554.16;5026833;28;20295;-76
2024/01/20 05:46:59;;;;;;;23.37;13.83;;;;;;;-5.33;85.66;96556.69;5011584;28;20233;-76
2024/01/20 05:49:24;;;;;;;25.33;14.40;;;;;;;-5.44;85.71;96557.72;5009672;28;20640;-76
2024/01/20 05:51:50;;;;;;;25.20;14.57;;;;;;;-5.39;85.45;96561.84;5011343;28;20223;-76
2024/01/20 05:54:15;;;;;;;22.47;13.30;;;;;;;-5.43;84.86;96559.38;5009313;28;20190;-76
2024/01/20 05:56:40;;;;;;;25.23;14.40;;;;;;;-5.51;85.30;96555.31;5011126;28;20183;-76
2024/01/20 05:59:06;;;;;;;23.97;12.83;;;;;;;-5.57;85.54;96560.47;4993203;28;20237;-76
2024/01/20 06:01:31;;;;;;;25.50;14.50;;;;;;;-5.63;86.53;96563.97;5010021;28;20195;-76
2024/01/20 06:03:56;;;;;;;26.80;13.77;;;;;;;-5.56;85.49;96568.06;5021906;28;20269;-76
2024/01/20 06:06:22;;;;;;;24.13;13.83;;;;;;;-5.51;84.65;96570.50;5027989;28;20277;-75
2024/01/20 06:08:47;;;;;;;25.03;13.70;;;;;;;-5.43;84.51;96582.16;5025441;28;20189;-76
2024/01/20 06:11:13;;;;;;;22.80;12.30;;;;;;;-5.45;84.42;96583.91;5007384;28;20254;-75
2024/01/20 06:13:38;;;;;;;22.07;12.90;;;;;;;-5.29;84.06;96583.66;5009161;28;20234;-76
2024/01/20 06:16:06;;;;;;;24.47;13.57;;;;;;;-5.41;83.96;96599.84;5011408;28;20184;-76
2024/01/20 06:18:32;;;;;;;21.93;12.47;;;;;;;-5.43;84.46;96596.53;5006461;28;20744;-76
2024/01/20 06:20:59;;;;;;;25.77;13.97;;;;;;;-5.52;85.03;96597.50;5007562;28;20293;-76
2024/01/20 06:23:25;;;;;;;26.40;14.87;;;;;;;-5.52;84.37;96601.75;5028229;28;20190;-76
2024/01/20 06:25:50;;;;;;;26.97;14.57;;;;;;;-5.56;85.10;96603.50;5005198;28;20198;-76
2024/01/20 06:28:17;;;;;;;27.70;13.80;;;;;;;-5.78;86.15;96599.63;5007415;28;20591;-76
2024/01/20 06:30:43;;;;;;;25.73;14.37;;;;;;;-5.54;85.39;96600.94;5025388;28;20564;-76
2024/01/20 06:33:09;;;;;;;25.83;14.77;;;;;;;-5.48;84.27;96599.16;5006772;28;20290;-75
2024/01/20 06:35:34;;;;;;;25.37;14.37;;;;;;;-5.43;84.21;96601.59;5025853;28;20939;-75
2024/01/20 06:37:59;;;;;;;23.77;14.40;;;;;;;-5.56;84.18;96605.19;4993335;28;20189;-76
2024/01/20 06:40:25;;;;;;;24.97;14.33;;;;;;;-5.61;84.43;96605.25;5025469;28;20229;-75
2024/01/20 06:42:50;;;;;;;26.50;14.50;;;;;;;-5.56;83.93;96607.72;5025912;28;20202;-76
2024/01/20 06:45:15;;;;;;;28.40;13.83;;;;;;;-5.54;84.27;96614.44;5022470;28;20219;-76
2024/01/20 06:47:41;;;;;;;25.53;14.00;;;;;;;-5.54;84.28;96613.59;5008433;28;20192;-76
2024/01/20 06:50:08;;;;;;;25.47;14.10;;;;;;;-5.55;83.52;96615.28;5007733;28;20210;-76
2024/01/20 06:52:33;;;;;;;21.87;12.50;;;;;;;-5.66;84.15;96619.66;5005388;28;20209;-76
2024/01/20 06:54:59;;;;;;;26.43;13.53;;;;;;;-5.74;84.26;96629.09;5006433;28;20761;-76
2024/01/20 06:57:24;;;;;;;24.60;14.83;;;;;;;-5.63;83.43;96627.22;5009258;28;20206;-76
2024/01/20 06:59:49;;;;;;;24.47;13.83;;;;;;;-5.64;83.71;96632.31;5004940;28;20206;-76
2024/01/20 07:02:15;;;;;;;31.33;14.77;;;;;;;-5.64;83.92;96628.09;5011721;28;20556;-76
2024/01/20 07:04:41;;;;;;;28.07;14.70;;;;;;;-5.59;83.08;96631.38;5023274;28;20660;-76
2024/01/20 07:07:06;;;;;;;22.20;13.13;;;;;;;-5.57;82.55;96628.81;5007149;28;20183;-76
2024/01/20 07:09:31;;;;;;;23.50;13.03;;;;;;;-5.57;82.65;96633.88;5009124;28;20205;-76
2024/01/20 07:11:57;;;;;;;21.53;12.57;;;;;;;-5.62;83.28;96636.50;5023227;28;20683;-76
2024/01/20 07:14:26;;;;;;;24.77;14.63;;;;;;;-5.73;83.86;96640.88;5008205;28;20183;-76
2024/01/20 07:16:52;;;;;;;21.77;12.40;;;;;;;-5.68;83.35;96643.34;5008574;28;20195;-76
2024/01/20 07:19:17;;;;;;;25.20;13.90;;;;;;;-5.60;83.35;96644.88;5007974;28;20223;-76
2024/01/20 07:21:43;;;;;;;25.17;13.97;;;;;;;-5.73;83.81;96644.25;4992162;28;20175;-76
2024/01/20 07:24:08;;;;;;;25.63;13.77;;;;;;;-5.67;83.79;96650.06;5008059;28;20234;-76
2024/01/20 07:26:33;;;;;;;24.07;14.43;;;;;;;-5.75;84.50;96653.53;5007082;28;20190;-75
2024/01/20 07:28:59;;;;;;;29.37;14.77;;;;;;;-5.57;83.36;96644.81;4992275;28;20220;-76
2024/01/20 07:31:24;;;;;;;26.97;13.70;;;;;;;-5.63;83.47;96652.53;5024638;28;20266;-76
2024/01/20 07:33:49;;;;;;;23.90;12.87;;;;;;;-5.49;82.82;96652.31;5026984;28;20187;-76
2024/01/20 07:36:15;;;;;;;22.70;12.67;;;;;;;-5.33;81.56;96650.38;5011613;28;20198;-76
2024/01/20 07:38:40;;;;;;;25.53;14.43;;;;;;;-5.26;82.11;96655.31;5026177;28;20198;-76
2024/01/20 07:41:07;;;;;;;25.57;13.63;;;;;;;-5.30;81.42;96657.91;5010462;28;20241;-76
2024/01/20 07:43:32;;;;;;;22.00;13.43;;;;;;;-5.17;81.09;96655.16;5013139;28;20180;-76
2024/01/20 07:45:58;;;;;;;25.70;12.07;;;;;;;-5.19;81.36;96658.59;5032249;28;20354;-76
2024/01/20 07:48:23;;;;;;;25.83;13.47;;;;;;;-5.16;80.72;96661.88;5013686;28;20181;-76
2024/01/20 07:50:48;;;;;;;23.17;12.90;;;;;;;-5.31;81.17;96669.72;5006545;28;20237;-76
2024/01/20 07:53:14;;;;;;;21.90;13.73;;;;;;;-5.18;81.13;96668.69;5011418;28;20264;-75
2024/01/20 07:55:39;;;;;;;22.33;13.23;;;;;;;-5.20;81.19;96669.59;5018200;28;20178;-75
2024/01/20 07:58:04;;;;;;;20.97;11.97;;;;;;;-5.15;81.32;96665.25;5012008;28;20225;-76
2024/01/20 08:00:30;;;;;;;24.63;13.33;;;;;;;-4.99;80.79;96669.19;5011534;28;20209;-76
2024/01/20 08:02:55;;;;;;;24.27;13.17;;;;;;;-4.99;80.80;96674.28;5014150;28;20195;-76
2024/01/20 08:05:20;;;;;;;21.70;12.63;;;;;;;-4.95;81.68;96678.41;4999645;28;20241;-75
2024/01/20 08:07:46;;;;;;;20.63;11.70;;;;;;;-4.90;80.44;96676.63;5011283;28;20191;-77
2024/01/20 08:10:11;;;;;;;19.47;12.43;;;;;;;-4.78;80.17;96679.81;5011190;28;20234;-77
2024/01/20 08:12:37;;;;;;;18.93;12.53;;;;;;;-4.68;79.47;96678.78;5026823;28;20285;-76
2024/01/20 08:15:02;;;;;;;18.60;11.57;;;;;;;-4.67;79.98;96676.25;5010860;28;20685;-75
2024/01/20 08:17:27;;;;;;;19.73;12.00;;;;;;;-4.65;79.31;96678.75;5024781;28;20202;-75
2024/01/20 08:19:53;;;;;;;18.40;10.80;;;;;;;-4.49;79.63;96671.69;5008906;28;20206;-75
2024/01/20 08:22:19;;;;;;;17.87;10.90;;;;;;;-4.41;79.18;96687.59;5014535;28;20193;-75
2024/01/20 08:24:45;;;;;;;18.33;10.43;;;;;;;-4.42;78.54;96681.66;5022551;28;20612;-75
2024/01/20 08:27:10;;;;;;;18.13;10.47;;;;;;;-4.24;78.46;96685.56;5019400;28;20201;-75
2024/01/20 08:29:36;;;;;;;15.57;10.20;;;;;;;-4.16;78.55;96698.06;5012459;28;20310;-76
2024/01/20 08:32:01;;;;;;;18.27;10.30;;;;;;;-3.99;77.60;96707.00;5012998;28;20216;-75
2024/01/20 08:34:26;;;;;;;15.00;10.13;;;;;;;-4.25;78.72;96704.16;5012830;28;20210;-76
2024/01/20 08:36:51;;;;;;;18.13;11.17;;;;;;;-4.14;79.26;96719.19;5012595;28;20225;-75
2024/01/20 08:39:20;;;;;;;19.43;10.93;;;;;;;-3.93;79.15;96725.53;5018230;28;20214;-75
2024/01/20 08:41:46;;;;;;;22.40;11.53;;;;;;;-3.82;78.29;96724.41;5010438;28;20270;-75
2024/01/20 08:44:11;;;;;;;19.70;11.73;;;;;;;-3.73;78.45;96723.41;5011084;28;20290;-76
2024/01/20 08:46:37;;;;;;;18.47;11.23;;;;;;;-3.69;78.06;96721.66;5027670;28;20611;-75
2024/01/20 08:49:02;;;;;;;17.07;10.37;;;;;;;-3.57;77.83;96724.72;5011289;28;20684;-75
2024/01/20 08:51:27;;;;;;;14.77;9.73;;;;;;;-3.51;77.83;96727.16;5010987;28;20993;-75
2024/01/20 08:53:53;;;;;;;13.70;8.70;;;;;;;-3.43;77.75;96734.59;5011130;28;20323;-75
2024/01/20 08:56:18;;;;;;;14.07;8.93;;;;;;;-3.11;76.79;96730.47;5011268;28;20245;-75
2024/01/20 08:58:43;;;;;;;15.37;9.07;;;;;;;-3.02;76.74;96728.53;5022422;28;20201;-75
2024/01/20 09:01:09;;;;;;;16.93;9.63;;;;;;;-2.89;76.88;96729.09;5011887;28;20198;-75
2024/01/20 09:03:34;;;;;;;20.73;12.73;;;;;;;-2.78;76.78;96732.22;5012305;28;20214;-75
2024/01/20 09:05:59;;;;;;;20.23;10.83;;;;;;;-2.69;76.72;96726.88;4994380;28;20222;-75
2024/01/20 09:08:25;;;;;;;16.20;10.63;;;;;;;-2.58;77.10;96729.16;5012328;28;20190;-75
2024/01/20 09:10:51;;;;;;;19.67;10.43;;;;;;;-2.54;76.58;96735.00;5027040;28;20701;-75
2024/01/20 09:13:17;;;;;;;19.53;11.27;;;;;;;-2.53;76.91;96742.59;5010976;28;20598;-75
2024/01/20 09:15:43;;;;;;;18.40;10.90;;;;;;;-2.44;76.32;96744.06;5012266;28;20218;-75
2024/01/20 09:18:08;;;;;;;16.63;10.07;;;;;;;-2.40;76.68;96743.09;5012420;28;20284;-75
2024/01/20 09:20:34;;;;;;;17.03;10.50;;;;;;;-2.33;75.90;96744.63;5010162;28;20211;-75
2024/01/20 09:22:59;;;;;;;17.97;10.37;;;;;;;-2.24;76.07;96744.38;5009112;28;20559;-75
2024/01/20 09:25:25;;;;;;;17.40;10.67;;;;;;;-2.26;76.73;96751.22;5027170;28;20195;-75
2024/01/20 09:27:50;;;;;;;17.57;10.07;;;;;;;-2.11;76.63;96749.97;5010971;28;20187;-76
2024/01/20 09:30:16;;;;;;;15.70;10.97;;;;;;;-2.08;76.34;96750.72;5013876;28;20225;-75
2024/01/20 09:32:41;;;;;;;19.30;11.73;;;;;;;-2.05;75.93;96755.72;5021538;28;20731;-75
2024/01/20 09:35:07;;;;;;;17.03;10.97;;;;;;;-2.01;75.99;96753.94;5008444;28;20289;-75
2024/01/20 09:37:32;;;;;;;18.07;11.50;;;;;;;-1.77;75.90;96771.09;5027009;28;20278;-75
2024/01/20 09:39:57;;;;;;;19.87;11.50;;;;;;;-1.63;75.62;96768.13;5007668;28;20247;-75
2024/01/20 09:42:23;;;;;;;21.77;10.63;;;;;;;-1.73;76.27;96766.72;5011685;28;20195;-75
2024/01/20 09:44:52;;;;;;;20.13;11.30;;;;;;;-1.53;75.37;96763.59;5010062;28;20207;-75
2024/01/20 09:47:17;;;;;;;17.20;11.73;;;;;;;-1.77;75.60;96765.13;5010277;28;20766;-75
2024/01/20 09:49:43;;;;;;;20.30;11.37;;;;;;;-1.71;75.88;96762.41;5017547;28;20216;-75
2024/01/20 09:52:09;;;;;;;15.87;11.10;;;;;;;-1.65;75.95;96762.25;5011385;28;20191;-75
2024/01/20 09:54:42;;;;;;;19.27;12.30;;;;;;;-1.43;75.60;96765.00;5012066;28;20685;-75
2024/01/20 09:57:11;;;;;;;22.47;12.40;;;;;;;-1.32;75.47;96770.63;5009093;28;20242;-75
2024/01/20 09:59:39;;;;;;;17.97;10.83;;;;;;;-1.33;74.25;96775.75;5025064;28;20629;-75
2024/01/20 10:02:04;;;;;;;19.40;11.50;;;;;;;-1.31;75.21;96774.84;4993882;28;20236;-75
2024/01/20 10:04:30;;;;;;;20.87;10.90;;;;;;;-1.36;75.31;96780.94;5011239;28;20202;-76
2024/01/20 10:06:55;;;;;;;19.37;12.47;;;;;;;-1.19;75.28;96781.28;5027885;28;20190;-75
2024/01/20 10:09:22;;;;;;;20.10;13.07;;;;;;;-1.12;74.44;96785.31;5025986;28;20218;-75
2024/01/20 10:11:47;;;;;;;22.97;13.47;;;;;;;-1.12;75.58;96787.03;5011222;28;20194;-75
2024/01/20 10:14:13;;;;;;;21.57;13.60;;;;;;;-0.94;75.21;96794.94;5026632;28;20187;-75
2024/01/20 10:16:41;;;;;;;22.87;13.70;;;;;;;-0.92;74.42;96787.25;5026138;28;20249;-75
2024/01/20 10:19:06;;;;;;;19.00;12.40;;;;;;;-0.78;74.23;96779.19;5009884;28;20318;-75
2024/01/20 10:21:38;;;;;;;18.97;12.90;;;;;;;-0.80;74.71;96797.06;5029759;28;20184;-75
2024/01/20 10:24:05;;;;;;;20.63;12.67;;;;;;;-0.74;74.87;96798.59;5010977;28;20241;-75
2024/01/20 10:26:30;;;;;;;21.77;13.23;;;;;;;-0.71;74.35;96793.38;5010281;28;20186;-75
2024/01/20 10:28:55;;;;;;;21.10;14.57;;;;;;;-0.75;74.18;96799.47;5009503;28;20245;-75
2024/01/20 10:31:21;;;;;;;21.97;13.47;;;;;;;-0.66;73.83;96797.47;5028123;28;20221;-75
2024/01/20 10:33:48;;;;;;;20.73;12.77;;;;;;;-0.81;73.73;96790.28;5026075;28;20240;-75
2024/01/20 10:36:16;;;;;;;19.70;12.37;;;;;;;-0.82;72.78;96798.00;5026400;28;20292;-75
2024/01/20 10:38:42;;;;;;;21.63;12.23;;;;;;;-0.89;72.14;96798.19;5009138;28;20291;-77
2024/01/20 10:41:08;;;;;;;18.83;13.13;;;;;;;-0.63;72.58;96788.88;5027778;28;20190;-76
2024/01/20 10:43:39;;;;;;;20.37;12.70;;;;;;;-0.75;72.52;96776.53;5010750;28;20190;-76
2024/01/20 10:46:20;;;;;;;16.57;10.90;;;;;;;-0.80;72.59;96786.03;5004712;28;20221;-76
2024/01/20 10:48:48;;;;;;;18.10;10.90;;;;;;;-0.77;70.99;96783.41;5009490;28;20214;-76
2024/01/20 10:51:14;;;;;;;15.73;10.87;;;;;;;-0.89;71.37;96784.59;5006834;28;20201;-76
2024/01/20 10:53:40;;;;;;;17.13;11.50;;;;;;;-0.61;71.56;96782.03;5026653;28;20233;-75
2024/01/20 10:56:07;;;;;;;18.33;12.07;;;;;;;-0.68;71.97;96776.28;5028042;28;20270;-76
2024/01/20 10:58:41;;;;;;;17.60;11.90;;;;;;;-0.61;72.37;96782.84;5009582;28;20202;-76
2024/01/20 11:01:07;;;;;;;19.33;11.43;;;;;;;-0.51;72.19;96788.50;5008849;28;20295;-76
2024/01/20 11:03:32;;;;;;;20.47;12.57;;;;;;;-0.32;72.31;96789.53;5025988;28;20198;-76
2024/01/20 11:05:58;;;;;;;16.83;11.60;;;;;;;-0.54;72.79;96783.47;5011991;28;20213;-76
2024/01/20 11:08:24;;;;;;;15.23;10.23;;;;;;;-0.50;71.64;96781.66;5028939;28;20244;-76